TAM3030 SBSP-SBCY
Flight info
| Callsign | TAM3030 |
|---|---|
| Flight time | 1h 53m |
| Altitude | 34000 |
| Route | GERTU UL201 ROBID DCT RODAD UM775 SINIP |
| Aircraft | A319/M-SDE3FGHIRWY/LB1 |
Departure
| Time | 2026-04-23 02:18 |
|---|---|
| Airport | Congonhas–Deputado Freitas Nobre Airport (SBSP) |
Arrival
| Time | 2026-04-23 04:11 |
|---|---|
| Airport | Várzea Grande–Marechal Rondon International Airport (SBCY) |
| Time | Latitude | Longitude | Altitude | Speed | Heading |
|---|---|---|---|---|---|
| 2026-04-23 01:53 | -23.62720 | -46.65825 | 2601 ft | 0 kts | 237° |
| 2026-04-23 01:53 | -23.62720 | -46.65826 | 2601 ft | 0 kts | 237° |
| 2026-04-23 02:04 | -23.62711 | -46.65812 | 2601 ft | 4 kts | 238° |
| 2026-04-23 02:05 | -23.62701 | -46.65787 | 2601 ft | 4 kts | 276° |
| 2026-04-23 02:05 | -23.62710 | -46.65773 | 2601 ft | 3 kts | 327° |
| 2026-04-23 02:05 | -23.62713 | -46.65770 | 2601 ft | 0 kts | 327° |
| 2026-04-23 02:13 | -23.62704 | -46.65776 | 2601 ft | 3 kts | 328° |
| 2026-04-23 02:13 | -23.62678 | -46.65779 | 2601 ft | 5 kts | 13° |
| 2026-04-23 02:13 | -23.62641 | -46.65776 | 2602 ft | 5 kts | 346° |
| 2026-04-23 02:13 | -23.62617 | -46.65788 | 2602 ft | 6 kts | 330° |
| 2026-04-23 02:14 | -23.62577 | -46.65816 | 2602 ft | 8 kts | 326° |
| 2026-04-23 02:14 | -23.62524 | -46.65852 | 2602 ft | 10 kts | 328° |
| 2026-04-23 02:14 | -23.62458 | -46.65894 | 2601 ft | 12 kts | 331° |
| 2026-04-23 02:14 | -23.62357 | -46.65968 | 2600 ft | 13 kts | 328° |
| 2026-04-23 02:15 | -23.62252 | -46.66039 | 2600 ft | 9 kts | 332° |
| 2026-04-23 02:15 | -23.62203 | -46.66065 | 2599 ft | 7 kts | 329° |
| 2026-04-23 02:15 | -23.62168 | -46.66091 | 2599 ft | 5 kts | 327° |
| 2026-04-23 02:16 | -23.62134 | -46.66115 | 2591 ft | 7 kts | 328° |
| 2026-04-23 02:16 | -23.62077 | -46.66140 | 2591 ft | 12 kts | 354° |
| 2026-04-23 02:16 | -23.62052 | -46.66073 | 2594 ft | 12 kts | 133° |
| 2026-04-23 02:16 | -23.62076 | -46.66057 | 2596 ft | 0 kts | 149° |
| 2026-04-23 02:17 | -23.62095 | -46.66045 | 2597 ft | 23 kts | 148° |
| 2026-04-23 02:17 | -23.62488 | -46.65770 | 2604 ft | 108 kts | 148° |
| 2026-04-23 02:17 | -23.63314 | -46.65201 | 2638 ft | 167 kts | 148° |
| 2026-04-23 02:18 | -23.64312 | -46.64509 | 3360 ft | 166 kts | 147° |
| 2026-04-23 02:18 | -23.65352 | -46.63929 | 3945 ft | 180 kts | 166° |
| 2026-04-23 02:18 | -23.66678 | -46.63959 | 4201 ft | 202 kts | 184° |
| 2026-04-23 02:18 | -23.68165 | -46.64129 | 4476 ft | 228 kts | 185° |
| 2026-04-23 02:19 | -23.69829 | -46.64323 | 4897 ft | 252 kts | 185° |
| 2026-04-23 02:19 | -23.71642 | -46.64532 | 5490 ft | 268 kts | 185° |
| 2026-04-23 02:19 | -23.73515 | -46.64754 | 6334 ft | 274 kts | 188° |
| 2026-04-23 02:19 | -23.75268 | -46.65562 | 7080 ft | 281 kts | 219° |
| 2026-04-23 02:20 | -23.76419 | -46.67277 | 7376 ft | 284 kts | 248° |
| 2026-04-23 02:20 | -23.77012 | -46.69337 | 7461 ft | 284 kts | 252° |
| 2026-04-23 02:20 | -23.77610 | -46.71394 | 7466 ft | 283 kts | 247° |
| 2026-04-23 02:20 | -23.78480 | -46.73321 | 7476 ft | 284 kts | 240° |
| 2026-04-23 02:21 | -23.79144 | -46.75371 | 8065 ft | 291 kts | 263° |
| 2026-04-23 02:21 | -23.78969 | -46.77576 | 8958 ft | 295 kts | 287° |
| 2026-04-23 02:21 | -23.77982 | -46.79513 | 9748 ft | 301 kts | 312° |
| 2026-04-23 02:21 | -23.76297 | -46.80892 | 10415 ft | 310 kts | 332° |
| 2026-04-23 02:22 | -23.74317 | -46.82040 | 10661 ft | 333 kts | 333° |
| 2026-04-23 02:22 | -23.72220 | -46.83222 | 11195 ft | 343 kts | 333° |
| 2026-04-23 02:22 | -23.70087 | -46.84417 | 11895 ft | 347 kts | 333° |
| 2026-04-23 02:22 | -23.67931 | -46.85627 | 12619 ft | 350 kts | 333° |
| 2026-04-23 02:23 | -23.65761 | -46.86853 | 13347 ft | 353 kts | 332° |
| 2026-04-23 02:23 | -23.63568 | -46.88101 | 14015 ft | 357 kts | 332° |
| 2026-04-23 02:23 | -23.61353 | -46.89367 | 14612 ft | 361 kts | 332° |
| 2026-04-23 02:23 | -23.59120 | -46.90645 | 15227 ft | 364 kts | 332° |
| 2026-04-23 02:24 | -23.56867 | -46.91933 | 15824 ft | 367 kts | 331° |
| 2026-04-23 02:24 | -23.54594 | -46.93232 | 16438 ft | 370 kts | 331° |
| 2026-04-23 02:24 | -23.52303 | -46.94539 | 17045 ft | 373 kts | 331° |
| 2026-04-23 02:24 | -23.49995 | -46.95855 | 17645 ft | 376 kts | 331° |
| 2026-04-23 02:25 | -23.47671 | -46.97180 | 18236 ft | 379 kts | 331° |
| 2026-04-23 02:25 | -23.45327 | -46.98517 | 18747 ft | 382 kts | 331° |
| 2026-04-23 02:25 | -23.42958 | -46.99866 | 19235 ft | 385 kts | 330° |
| 2026-04-23 02:25 | -23.40572 | -47.01223 | 19709 ft | 388 kts | 330° |
| 2026-04-23 02:26 | -23.38170 | -47.02588 | 20196 ft | 391 kts | 330° |
| 2026-04-23 02:26 | -23.35750 | -47.03959 | 20683 ft | 394 kts | 330° |
| 2026-04-23 02:26 | -23.33303 | -47.05346 | 21165 ft | 397 kts | 329° |
| 2026-04-23 02:26 | -23.30845 | -47.06742 | 21654 ft | 400 kts | 329° |
| 2026-04-23 02:27 | -23.28366 | -47.08152 | 22127 ft | 404 kts | 329° |
| 2026-04-23 02:27 | -23.25899 | -47.09554 | 22587 ft | 407 kts | 329° |
| 2026-04-23 02:27 | -23.23382 | -47.10984 | 23050 ft | 410 kts | 329° |
| 2026-04-23 02:27 | -23.20816 | -47.12440 | 23525 ft | 412 kts | 329° |
| 2026-04-23 02:28 | -23.18297 | -47.13868 | 23926 ft | 415 kts | 329° |
| 2026-04-23 02:28 | -23.15727 | -47.15323 | 24312 ft | 417 kts | 329° |
| 2026-04-23 02:28 | -23.13144 | -47.16784 | 24705 ft | 419 kts | 329° |
| 2026-04-23 02:28 | -23.10555 | -47.18246 | 25089 ft | 421 kts | 329° |
| 2026-04-23 02:29 | -23.07951 | -47.19719 | 25482 ft | 422 kts | 329° |
| 2026-04-23 02:29 | -23.05340 | -47.21198 | 25862 ft | 424 kts | 329° |
| 2026-04-23 02:29 | -23.02723 | -47.22679 | 26252 ft | 425 kts | 329° |
| 2026-04-23 02:29 | -23.00091 | -47.24164 | 26633 ft | 427 kts | 329° |
| 2026-04-23 02:30 | -22.97449 | -47.25655 | 27002 ft | 428 kts | 329° |
| 2026-04-23 02:30 | -22.94802 | -47.27149 | 27364 ft | 430 kts | 329° |
| 2026-04-23 02:30 | -22.92142 | -47.28650 | 27721 ft | 432 kts | 329° |
| 2026-04-23 02:30 | -22.89476 | -47.30158 | 28077 ft | 433 kts | 329° |
| 2026-04-23 02:31 | -22.86798 | -47.31670 | 28429 ft | 435 kts | 329° |
| 2026-04-23 02:31 | -22.84105 | -47.33189 | 28775 ft | 436 kts | 329° |
| 2026-04-23 02:31 | -22.81408 | -47.34707 | 29133 ft | 438 kts | 329° |
| 2026-04-23 02:31 | -22.78698 | -47.36231 | 29471 ft | 439 kts | 329° |
| 2026-04-23 02:32 | -22.75978 | -47.37759 | 29802 ft | 441 kts | 329° |
| 2026-04-23 02:32 | -22.73246 | -47.39293 | 30137 ft | 443 kts | 329° |
| 2026-04-23 02:32 | -22.70504 | -47.40829 | 30436 ft | 444 kts | 329° |
| 2026-04-23 02:32 | -22.67751 | -47.42373 | 30709 ft | 446 kts | 329° |
| 2026-04-23 02:33 | -22.64991 | -47.43926 | 30957 ft | 448 kts | 329° |
| 2026-04-23 02:33 | -22.62217 | -47.45488 | 31200 ft | 451 kts | 329° |
| 2026-04-23 02:33 | -22.59427 | -47.47057 | 31446 ft | 453 kts | 329° |
| 2026-04-23 02:33 | -22.56619 | -47.48630 | 31690 ft | 455 kts | 329° |
| 2026-04-23 02:34 | -22.53839 | -47.50187 | 31998 ft | 456 kts | 329° |
| 2026-04-23 02:34 | -22.51023 | -47.51764 | 32360 ft | 455 kts | 329° |
| 2026-04-23 02:34 | -22.48214 | -47.53336 | 32720 ft | 455 kts | 329° |
| 2026-04-23 02:34 | -22.45407 | -47.54912 | 33079 ft | 454 kts | 327° |
| 2026-04-23 02:35 | -22.42785 | -47.56768 | 33399 ft | 449 kts | 317° |
| 2026-04-23 02:35 | -22.40499 | -47.59046 | 33727 ft | 446 kts | 310° |
| 2026-04-23 02:35 | -22.38352 | -47.61465 | 34032 ft | 446 kts | 310° |
| 2026-04-23 02:36 | -22.34101 | -47.66216 | 34114 ft | 430 kts | 310° |
| 2026-04-23 02:36 | -22.29993 | -47.70776 | 34109 ft | 426 kts | 310° |
| 2026-04-23 02:37 | -22.25918 | -47.75315 | 34113 ft | 425 kts | 310° |
| 2026-04-23 02:37 | -22.21801 | -47.79906 | 34111 ft | 426 kts | 310° |
| 2026-04-23 02:38 | -22.17686 | -47.84486 | 34111 ft | 424 kts | 310° |
| 2026-04-23 02:38 | -22.13595 | -47.89028 | 34112 ft | 424 kts | 310° |
| 2026-04-23 02:39 | -22.09489 | -47.93592 | 34110 ft | 424 kts | 310° |
| 2026-04-23 02:39 | -22.05375 | -47.98154 | 34095 ft | 424 kts | 310° |
| 2026-04-23 02:40 | -22.01285 | -48.02683 | 34094 ft | 424 kts | 310° |
| 2026-04-23 02:40 | -21.97179 | -48.07238 | 34098 ft | 424 kts | 310° |
| 2026-04-23 02:41 | -21.93060 | -48.11795 | 34090 ft | 423 kts | 311° |
| 2026-04-23 02:41 | -21.88960 | -48.16328 | 34085 ft | 422 kts | 311° |
| 2026-04-23 02:42 | -21.84855 | -48.20863 | 34080 ft | 422 kts | 311° |
| 2026-04-23 02:42 | -21.80756 | -48.25386 | 34079 ft | 422 kts | 311° |
| 2026-04-23 02:43 | -21.76655 | -48.29912 | 34081 ft | 422 kts | 311° |
| 2026-04-23 02:43 | -21.72559 | -48.34422 | 34064 ft | 421 kts | 311° |
| 2026-04-23 02:44 | -21.68492 | -48.38896 | 34059 ft | 421 kts | 311° |
| 2026-04-23 02:44 | -21.64385 | -48.43403 | 34058 ft | 421 kts | 311° |
| 2026-04-23 02:45 | -21.60287 | -48.47910 | 34062 ft | 421 kts | 311° |
| 2026-04-23 02:45 | -21.56182 | -48.52417 | 34056 ft | 421 kts | 311° |
| 2026-04-23 02:46 | -21.52081 | -48.56912 | 34049 ft | 422 kts | 311° |
| 2026-04-23 02:46 | -21.47967 | -48.61423 | 34048 ft | 422 kts | 311° |
| 2026-04-23 02:47 | -21.43879 | -48.65897 | 34051 ft | 423 kts | 311° |
| 2026-04-23 02:47 | -21.39752 | -48.70407 | 34053 ft | 423 kts | 311° |
| 2026-04-23 02:48 | -21.35628 | -48.74919 | 34060 ft | 424 kts | 311° |
| 2026-04-23 02:48 | -21.31505 | -48.79437 | 34051 ft | 424 kts | 311° |
| 2026-04-23 02:49 | -21.27362 | -48.83956 | 34051 ft | 425 kts | 311° |
| 2026-04-23 02:49 | -21.23210 | -48.88465 | 34054 ft | 425 kts | 312° |
| 2026-04-23 02:50 | -21.19059 | -48.92984 | 34054 ft | 425 kts | 311° |
| 2026-04-23 02:50 | -21.14921 | -48.97510 | 34053 ft | 425 kts | 311° |
| 2026-04-23 02:51 | -21.10776 | -49.02034 | 34050 ft | 426 kts | 312° |
| 2026-04-23 02:51 | -21.06618 | -49.06559 | 34048 ft | 426 kts | 312° |
| 2026-04-23 02:52 | -21.02464 | -49.11076 | 34046 ft | 426 kts | 312° |
| 2026-04-23 02:52 | -20.98309 | -49.15590 | 34058 ft | 426 kts | 312° |
| 2026-04-23 02:53 | -20.94147 | -49.20104 | 34062 ft | 426 kts | 312° |
| 2026-04-23 02:53 | -20.89986 | -49.24621 | 34076 ft | 426 kts | 312° |
| 2026-04-23 02:54 | -20.85822 | -49.29140 | 34092 ft | 427 kts | 312° |
| 2026-04-23 02:54 | -20.81652 | -49.33654 | 34100 ft | 427 kts | 312° |
| 2026-04-23 02:55 | -20.77480 | -49.38167 | 34098 ft | 427 kts | 312° |
| 2026-04-23 02:55 | -20.73310 | -49.42685 | 34096 ft | 427 kts | 312° |
| 2026-04-23 02:56 | -20.69128 | -49.47208 | 34086 ft | 428 kts | 312° |
| 2026-04-23 02:56 | -20.64941 | -49.51735 | 34077 ft | 428 kts | 312° |
| 2026-04-23 02:57 | -20.60757 | -49.56258 | 34069 ft | 428 kts | 312° |
| 2026-04-23 02:57 | -20.57273 | -49.60010 | 34056 ft | 428 kts | 312° |
| 2026-04-23 02:58 | -20.53075 | -49.64516 | 34042 ft | 428 kts | 312° |
| 2026-04-23 02:58 | -20.48883 | -49.69023 | 34041 ft | 428 kts | 312° |
| 2026-04-23 02:59 | -20.44011 | -49.74272 | 34042 ft | 428 kts | 312° |
| 2026-04-23 02:59 | -20.40503 | -49.78050 | 34044 ft | 428 kts | 312° |
| 2026-04-23 03:00 | -20.36335 | -49.82520 | 34036 ft | 428 kts | 312° |
| 2026-04-23 03:00 | -20.32112 | -49.87049 | 34040 ft | 428 kts | 312° |
| 2026-04-23 03:01 | -20.27948 | -49.91521 | 34041 ft | 428 kts | 312° |
| 2026-04-23 03:01 | -20.23747 | -49.96019 | 34035 ft | 428 kts | 312° |
| 2026-04-23 03:02 | -20.19545 | -50.00511 | 34037 ft | 427 kts | 312° |
| 2026-04-23 03:02 | -20.15348 | -50.04989 | 34029 ft | 427 kts | 313° |
| 2026-04-23 03:03 | -20.11158 | -50.09467 | 34028 ft | 427 kts | 313° |
| 2026-04-23 03:03 | -20.06962 | -50.13943 | 34025 ft | 427 kts | 313° |
| 2026-04-23 03:04 | -20.02764 | -50.18418 | 34026 ft | 427 kts | 313° |
| 2026-04-23 03:04 | -19.98583 | -50.22914 | 34030 ft | 427 kts | 311° |
| 2026-04-23 03:05 | -19.94637 | -50.27619 | 34034 ft | 426 kts | 308° |
| 2026-04-23 03:05 | -19.90830 | -50.32448 | 34035 ft | 426 kts | 308° |
| 2026-04-23 03:06 | -19.86993 | -50.37235 | 34035 ft | 426 kts | 309° |
| 2026-04-23 03:06 | -19.83127 | -50.41944 | 34035 ft | 425 kts | 309° |
| 2026-04-23 03:07 | -19.79226 | -50.46661 | 34029 ft | 425 kts | 309° |
| 2026-04-23 03:07 | -19.75337 | -50.51386 | 34028 ft | 424 kts | 309° |
| 2026-04-23 03:08 | -19.71459 | -50.56115 | 34028 ft | 424 kts | 309° |
| 2026-04-23 03:08 | -19.67584 | -50.60837 | 34024 ft | 424 kts | 309° |
| 2026-04-23 03:09 | -19.63706 | -50.65552 | 34028 ft | 424 kts | 309° |
| 2026-04-23 03:09 | -19.59820 | -50.70264 | 34034 ft | 424 kts | 309° |
| 2026-04-23 03:10 | -19.55943 | -50.74975 | 34032 ft | 424 kts | 309° |
| 2026-04-23 03:10 | -19.52057 | -50.79669 | 34035 ft | 423 kts | 309° |
| 2026-04-23 03:11 | -19.48181 | -50.84358 | 34036 ft | 423 kts | 309° |
| 2026-04-23 03:11 | -19.44307 | -50.89049 | 34033 ft | 422 kts | 309° |
| 2026-04-23 03:12 | -19.40461 | -50.93702 | 34035 ft | 422 kts | 309° |
| 2026-04-23 03:12 | -19.36586 | -50.98378 | 34031 ft | 422 kts | 309° |
| 2026-04-23 03:13 | -19.32721 | -51.03056 | 34035 ft | 422 kts | 309° |
| 2026-04-23 03:13 | -19.28854 | -51.07728 | 34037 ft | 422 kts | 309° |
| 2026-04-23 03:14 | -19.24976 | -51.12389 | 34036 ft | 422 kts | 309° |
| 2026-04-23 03:14 | -19.21104 | -51.17049 | 34035 ft | 422 kts | 309° |
| 2026-04-23 03:15 | -19.17239 | -51.21713 | 34030 ft | 422 kts | 309° |
| 2026-04-23 03:15 | -19.13337 | -51.26403 | 34029 ft | 422 kts | 309° |
| 2026-04-23 03:16 | -19.09461 | -51.31056 | 34029 ft | 422 kts | 310° |
| 2026-04-23 03:16 | -19.03667 | -51.38011 | 34036 ft | 422 kts | 310° |
| 2026-04-23 03:17 | -18.99797 | -51.42670 | 34036 ft | 422 kts | 310° |
| 2026-04-23 03:17 | -18.95910 | -51.47319 | 34031 ft | 422 kts | 310° |
| 2026-04-23 03:18 | -18.92021 | -51.51962 | 34030 ft | 422 kts | 310° |
| 2026-04-23 03:18 | -18.88132 | -51.56616 | 34033 ft | 423 kts | 310° |
| 2026-04-23 03:19 | -18.84247 | -51.61271 | 34038 ft | 422 kts | 310° |
| 2026-04-23 03:19 | -18.80355 | -51.65916 | 34044 ft | 422 kts | 310° |
| 2026-04-23 03:20 | -18.76464 | -51.70558 | 34036 ft | 422 kts | 310° |
| 2026-04-23 03:20 | -18.72570 | -51.75203 | 34035 ft | 423 kts | 310° |
| 2026-04-23 03:21 | -18.68669 | -51.79847 | 34038 ft | 423 kts | 310° |
| 2026-04-23 03:21 | -18.64767 | -51.84503 | 34043 ft | 423 kts | 310° |
| 2026-04-23 03:22 | -18.60887 | -51.89126 | 34046 ft | 423 kts | 310° |
| 2026-04-23 03:22 | -18.56985 | -51.93774 | 34052 ft | 423 kts | 310° |
| 2026-04-23 03:23 | -18.53077 | -51.98418 | 34044 ft | 424 kts | 310° |
| 2026-04-23 03:23 | -18.49160 | -52.03062 | 34043 ft | 424 kts | 310° |
| 2026-04-23 03:24 | -18.45236 | -52.07713 | 34045 ft | 424 kts | 310° |
| 2026-04-23 03:24 | -18.41317 | -52.12364 | 34050 ft | 424 kts | 311° |
| 2026-04-23 03:25 | -18.37390 | -52.17012 | 34052 ft | 424 kts | 311° |
| 2026-04-23 03:25 | -18.33466 | -52.21656 | 34052 ft | 425 kts | 311° |
| 2026-04-23 03:26 | -18.29544 | -52.26304 | 34052 ft | 425 kts | 311° |
| 2026-04-23 03:26 | -18.25616 | -52.30950 | 34058 ft | 425 kts | 311° |
| 2026-04-23 03:27 | -18.21682 | -52.35592 | 34057 ft | 425 kts | 311° |
| 2026-04-23 03:27 | -18.17750 | -52.40230 | 34064 ft | 425 kts | 311° |
| 2026-04-23 03:28 | -18.13818 | -52.44864 | 34065 ft | 424 kts | 311° |
| 2026-04-23 03:28 | -18.09917 | -52.49469 | 34061 ft | 424 kts | 311° |
| 2026-04-23 03:29 | -18.05985 | -52.54101 | 34058 ft | 425 kts | 311° |
| 2026-04-23 03:29 | -18.02057 | -52.58731 | 34059 ft | 425 kts | 311° |
| 2026-04-23 03:30 | -17.98123 | -52.63356 | 34061 ft | 424 kts | 311° |
| 2026-04-23 03:30 | -17.94191 | -52.67980 | 34063 ft | 424 kts | 311° |
| 2026-04-23 03:31 | -17.90256 | -52.72599 | 34065 ft | 424 kts | 311° |
| 2026-04-23 03:31 | -17.86317 | -52.77215 | 34067 ft | 424 kts | 311° |
| 2026-04-23 03:32 | -17.82383 | -52.81831 | 34067 ft | 424 kts | 311° |
| 2026-04-23 03:32 | -17.78452 | -52.86450 | 34067 ft | 424 kts | 311° |
| 2026-04-23 03:33 | -17.74513 | -52.91062 | 34067 ft | 424 kts | 311° |
| 2026-04-23 03:33 | -17.70577 | -52.95659 | 34064 ft | 424 kts | 312° |
| 2026-04-23 03:34 | -17.66642 | -53.00266 | 34060 ft | 424 kts | 312° |
| 2026-04-23 03:34 | -17.62698 | -53.04877 | 34060 ft | 424 kts | 312° |
| 2026-04-23 03:35 | -17.58755 | -53.09479 | 34059 ft | 424 kts | 312° |
| 2026-04-23 03:35 | -17.54813 | -53.14085 | 34058 ft | 424 kts | 312° |
| 2026-04-23 03:36 | -17.50873 | -53.18679 | 34053 ft | 424 kts | 312° |
| 2026-04-23 03:36 | -17.46928 | -53.23273 | 34053 ft | 424 kts | 313° |
| 2026-04-23 03:37 | -17.43010 | -53.27830 | 34049 ft | 424 kts | 313° |
| 2026-04-23 03:37 | -17.39071 | -53.32418 | 34051 ft | 423 kts | 313° |
| 2026-04-23 03:38 | -17.35135 | -53.36999 | 34048 ft | 423 kts | 313° |
| 2026-04-23 03:38 | -17.31191 | -53.41577 | 34045 ft | 423 kts | 313° |
| 2026-04-23 03:39 | -17.27255 | -53.46151 | 34041 ft | 423 kts | 313° |
| 2026-04-23 03:39 | -17.23367 | -53.50665 | 34035 ft | 423 kts | 313° |
| 2026-04-23 03:40 | -17.19424 | -53.55236 | 34033 ft | 423 kts | 313° |
| 2026-04-23 03:40 | -17.15473 | -53.59806 | 34034 ft | 424 kts | 313° |
| 2026-04-23 03:41 | -17.11527 | -53.64385 | 34037 ft | 424 kts | 313° |
| 2026-04-23 03:41 | -17.08127 | -53.69415 | 34034 ft | 426 kts | 300° |
| 2026-04-23 03:42 | -17.05288 | -53.74860 | 34033 ft | 426 kts | 300° |
| 2026-04-23 03:42 | -17.02484 | -53.80225 | 34032 ft | 426 kts | 301° |
| 2026-04-23 03:43 | -17.00120 | -53.84743 | 34028 ft | 426 kts | 301° |
| 2026-04-23 03:43 | -16.96787 | -53.91097 | 34029 ft | 427 kts | 301° |
| 2026-04-23 03:44 | -16.94420 | -53.95611 | 34026 ft | 427 kts | 301° |
| 2026-04-23 03:44 | -16.91568 | -54.01052 | 34022 ft | 427 kts | 301° |
| 2026-04-23 03:45 | -16.88717 | -54.06486 | 34019 ft | 426 kts | 301° |
| 2026-04-23 03:45 | -16.85869 | -54.11912 | 34020 ft | 426 kts | 301° |
| 2026-04-23 03:46 | -16.83017 | -54.17344 | 34013 ft | 426 kts | 301° |
| 2026-04-23 03:46 | -16.80159 | -54.22759 | 34006 ft | 426 kts | 301° |
| 2026-04-23 03:47 | -16.77320 | -54.28150 | 34004 ft | 426 kts | 301° |
| 2026-04-23 03:47 | -16.74447 | -54.33607 | 34004 ft | 426 kts | 301° |
| 2026-04-23 03:48 | -16.71614 | -54.38973 | 34001 ft | 426 kts | 301° |
| 2026-04-23 03:48 | -16.70182 | -54.41684 | 33697 ft | 426 kts | 301° |
| 2026-04-23 03:48 | -16.68756 | -54.44381 | 33185 ft | 423 kts | 301° |
| 2026-04-23 03:49 | -16.67343 | -54.47063 | 32689 ft | 420 kts | 301° |
| 2026-04-23 03:49 | -16.65977 | -54.49661 | 32203 ft | 418 kts | 301° |
| 2026-04-23 03:49 | -16.64577 | -54.52308 | 31712 ft | 416 kts | 301° |
| 2026-04-23 03:49 | -16.63215 | -54.54874 | 31252 ft | 413 kts | 301° |
| 2026-04-23 03:50 | -16.61829 | -54.57494 | 30778 ft | 412 kts | 301° |
| 2026-04-23 03:50 | -16.60444 | -54.60106 | 30309 ft | 411 kts | 301° |
| 2026-04-23 03:50 | -16.59060 | -54.62716 | 29809 ft | 410 kts | 301° |
| 2026-04-23 03:50 | -16.57690 | -54.65311 | 29357 ft | 407 kts | 300° |
| 2026-04-23 03:51 | -16.56387 | -54.67831 | 28932 ft | 404 kts | 300° |
| 2026-04-23 03:51 | -16.55073 | -54.70410 | 28503 ft | 402 kts | 300° |
| 2026-04-23 03:51 | -16.53804 | -54.72917 | 28097 ft | 400 kts | 299° |
| 2026-04-23 03:51 | -16.52512 | -54.75470 | 27678 ft | 397 kts | 300° |
| 2026-04-23 03:52 | -16.51222 | -54.78005 | 27240 ft | 395 kts | 300° |
| 2026-04-23 03:52 | -16.49935 | -54.80522 | 26819 ft | 393 kts | 300° |
| 2026-04-23 03:52 | -16.48650 | -54.83027 | 26380 ft | 391 kts | 300° |
| 2026-04-23 03:52 | -16.47405 | -54.85453 | 25949 ft | 389 kts | 299° |
| 2026-04-23 03:53 | -16.46147 | -54.87908 | 25509 ft | 388 kts | 299° |
| 2026-04-23 03:53 | -16.44877 | -54.90383 | 25050 ft | 387 kts | 299° |
| 2026-04-23 03:53 | -16.43633 | -54.92804 | 24594 ft | 386 kts | 299° |
| 2026-04-23 03:53 | -16.42365 | -54.95269 | 24123 ft | 386 kts | 299° |
| 2026-04-23 03:54 | -16.41098 | -54.97730 | 23657 ft | 386 kts | 299° |
| 2026-04-23 03:54 | -16.39845 | -55.00157 | 23131 ft | 385 kts | 299° |
| 2026-04-23 03:54 | -16.38582 | -55.02606 | 22660 ft | 382 kts | 299° |
| 2026-04-23 03:54 | -16.37360 | -55.04977 | 22212 ft | 380 kts | 298° |
| 2026-04-23 03:55 | -16.36117 | -55.07392 | 21768 ft | 378 kts | 298° |
| 2026-04-23 03:55 | -16.34911 | -55.09740 | 21327 ft | 376 kts | 298° |
| 2026-04-23 03:55 | -16.33685 | -55.12130 | 20885 ft | 373 kts | 298° |
| 2026-04-23 03:55 | -16.32493 | -55.14449 | 20453 ft | 372 kts | 298° |
| 2026-04-23 03:56 | -16.31319 | -55.16728 | 20032 ft | 370 kts | 298° |
| 2026-04-23 03:56 | -16.30093 | -55.19109 | 19592 ft | 368 kts | 298° |
| 2026-04-23 03:56 | -16.28885 | -55.21451 | 19160 ft | 367 kts | 298° |
| 2026-04-23 03:56 | -16.27679 | -55.23787 | 18738 ft | 365 kts | 298° |
| 2026-04-23 03:57 | -16.26476 | -55.26112 | 18303 ft | 364 kts | 298° |
| 2026-04-23 03:57 | -16.25282 | -55.28424 | 17841 ft | 362 kts | 298° |
| 2026-04-23 03:57 | -16.24124 | -55.30667 | 17437 ft | 359 kts | 298° |
| 2026-04-23 03:57 | -16.22947 | -55.32948 | 17026 ft | 356 kts | 298° |
| 2026-04-23 03:58 | -16.21776 | -55.35214 | 16619 ft | 354 kts | 298° |
| 2026-04-23 03:58 | -16.20613 | -55.37466 | 16216 ft | 352 kts | 298° |
| 2026-04-23 03:58 | -16.19461 | -55.39701 | 15822 ft | 350 kts | 298° |
| 2026-04-23 03:58 | -16.18315 | -55.41924 | 15439 ft | 348 kts | 298° |
| 2026-04-23 03:59 | -16.17173 | -55.44135 | 15051 ft | 346 kts | 298° |
| 2026-04-23 03:59 | -16.16058 | -55.46287 | 14676 ft | 344 kts | 298° |
| 2026-04-23 03:59 | -16.14922 | -55.48474 | 14284 ft | 343 kts | 298° |
| 2026-04-23 03:59 | -16.13791 | -55.50655 | 13902 ft | 341 kts | 298° |
| 2026-04-23 04:00 | -16.12669 | -55.52824 | 13477 ft | 340 kts | 299° |
| 2026-04-23 04:00 | -16.11553 | -55.54981 | 13088 ft | 337 kts | 299° |
| 2026-04-23 04:00 | -16.10445 | -55.57119 | 12708 ft | 334 kts | 299° |
| 2026-04-23 04:00 | -16.09370 | -55.59193 | 12316 ft | 332 kts | 299° |
| 2026-04-23 04:01 | -16.08280 | -55.61301 | 11922 ft | 330 kts | 299° |
| 2026-04-23 04:01 | -16.07194 | -55.63398 | 11534 ft | 329 kts | 299° |
| 2026-04-23 04:01 | -16.06109 | -55.65488 | 11141 ft | 328 kts | 299° |
| 2026-04-23 04:01 | -16.05061 | -55.67503 | 10760 ft | 326 kts | 299° |
| 2026-04-23 04:02 | -16.03983 | -55.69577 | 10342 ft | 325 kts | 299° |
| 2026-04-23 04:02 | -16.02915 | -55.71640 | 9940 ft | 324 kts | 299° |
| 2026-04-23 04:02 | -16.01867 | -55.73663 | 9740 ft | 311 kts | 300° |
| 2026-04-23 04:02 | -16.00850 | -55.75623 | 9158 ft | 306 kts | 300° |
| 2026-04-23 04:03 | -15.99849 | -55.77549 | 8704 ft | 298 kts | 300° |
| 2026-04-23 04:03 | -15.98880 | -55.79414 | 8291 ft | 289 kts | 300° |
| 2026-04-23 04:03 | -15.97939 | -55.81222 | 7907 ft | 281 kts | 300° |
| 2026-04-23 04:03 | -15.97010 | -55.83009 | 7499 ft | 282 kts | 300° |
| 2026-04-23 04:04 | -15.96077 | -55.84804 | 7091 ft | 283 kts | 300° |
| 2026-04-23 04:04 | -15.95141 | -55.86605 | 6686 ft | 283 kts | 300° |
| 2026-04-23 04:04 | -15.94202 | -55.88409 | 6231 ft | 284 kts | 300° |
| 2026-04-23 04:04 | -15.93260 | -55.90216 | 5794 ft | 284 kts | 300° |
| 2026-04-23 04:05 | -15.92321 | -55.92017 | 5353 ft | 285 kts | 299° |
| 2026-04-23 04:05 | -15.91390 | -55.93803 | 4912 ft | 285 kts | 299° |
| 2026-04-23 04:05 | -15.90452 | -55.95604 | 4619 ft | 279 kts | 299° |
| 2026-04-23 04:05 | -15.89556 | -55.97327 | 4545 ft | 263 kts | 299° |
| 2026-04-23 04:06 | -15.88583 | -55.98870 | 4449 ft | 249 kts | 314° |
| 2026-04-23 04:06 | -15.87288 | -55.99955 | 4329 ft | 235 kts | 331° |
| 2026-04-23 04:06 | -15.85880 | -56.00733 | 4242 ft | 224 kts | 335° |
| 2026-04-23 04:06 | -15.84519 | -56.01443 | 4149 ft | 214 kts | 335° |
| 2026-04-23 04:07 | -15.83218 | -56.02131 | 4071 ft | 208 kts | 335° |
| 2026-04-23 04:07 | -15.81956 | -56.02802 | 3875 ft | 207 kts | 335° |
| 2026-04-23 04:07 | -15.80706 | -56.03467 | 3635 ft | 207 kts | 335° |
| 2026-04-23 04:07 | -15.79454 | -56.04133 | 3387 ft | 208 kts | 335° |
| 2026-04-23 04:08 | -15.78167 | -56.04819 | 3120 ft | 208 kts | 334° |
| 2026-04-23 04:08 | -15.76873 | -56.05508 | 2858 ft | 209 kts | 334° |
| 2026-04-23 04:08 | -15.75593 | -56.06189 | 2602 ft | 206 kts | 334° |
| 2026-04-23 04:08 | -15.74339 | -56.06857 | 2330 ft | 198 kts | 334° |
| 2026-04-23 04:09 | -15.73160 | -56.07485 | 2094 ft | 180 kts | 334° |
| 2026-04-23 04:09 | -15.72107 | -56.08046 | 1857 ft | 161 kts | 335° |
| 2026-04-23 04:09 | -15.71151 | -56.08555 | 1670 ft | 149 kts | 335° |
| 2026-04-23 04:09 | -15.70243 | -56.09038 | 1483 ft | 144 kts | 335° |
| 2026-04-23 04:10 | -15.69364 | -56.09505 | 1308 ft | 140 kts | 334° |
| 2026-04-23 04:10 | -15.68509 | -56.09959 | 1142 ft | 136 kts | 334° |
| 2026-04-23 04:10 | -15.67672 | -56.10410 | 954 ft | 135 kts | 334° |
| 2026-04-23 04:10 | -15.66837 | -56.10844 | 781 ft | 134 kts | 333° |
| 2026-04-23 04:11 | -15.66012 | -56.11290 | 618 ft | 132 kts | 333° |
| 2026-04-23 04:11 | -15.65309 | -56.11662 | 603 ft | 93 kts | 333° |
| 2026-04-23 04:11 | -15.65028 | -56.11812 | 607 ft | 0 kts | 306° |
| 2026-04-23 04:11 | -15.65034 | -56.11820 | 611 ft | 4 kts | 239° |
| 2026-04-23 04:12 | -15.65064 | -56.11845 | 608 ft | 8 kts | 218° |
| 2026-04-23 04:12 | -15.65083 | -56.11881 | 608 ft | 0 kts | 248° |
| 2026-04-23 04:14 | -15.65085 | -56.11889 | 614 ft | 2 kts | 256° |
| 2026-04-23 04:14 | -15.65076 | -56.11913 | 605 ft | 5 kts | 302° |
| 2026-04-23 04:14 | -15.65083 | -56.11960 | 605 ft | 10 kts | 245° |
| 2026-04-23 04:15 | -15.65086 | -56.11965 | 613 ft | 0 kts | 244° |